createdAt,value
2023-04-23T00:00:34.891Z,33.41
2023-04-23T00:01:34.908Z,33.42
2023-04-23T00:02:35.009Z,33.42
2023-04-23T00:03:35.188Z,33.46
2023-04-23T00:04:35.064Z,33.46
2023-04-23T00:05:35.146Z,33.44
2023-04-23T00:06:35.051Z,33.44
2023-04-23T00:07:35.092Z,33.48
2023-04-23T00:08:35.146Z,33.46
2023-04-23T00:09:35.144Z,33.42
2023-04-23T00:10:35.188Z,33.35
2023-04-23T00:11:35.195Z,33.45
2023-04-23T00:12:35.268Z,33.46
2023-04-23T00:13:35.281Z,33.42
2023-04-23T00:14:35.334Z,33.45
2023-04-23T00:15:35.324Z,33.44
2023-04-23T00:16:35.394Z,33.48
2023-04-23T00:17:35.502Z,33.45
2023-04-23T00:18:35.418Z,33.44
2023-04-23T00:19:35.462Z,33.45
2023-04-23T00:20:35.487Z,33.44
2023-04-23T00:21:35.514Z,33.50
2023-04-23T00:22:35.579Z,33.46
2023-04-23T00:23:35.544Z,33.42
2023-04-23T00:24:35.569Z,33.44
2023-04-23T00:25:35.611Z,33.40
2023-04-23T00:26:35.580Z,33.44
2023-04-23T00:27:35.671Z,33.46
2023-04-23T00:28:35.621Z,33.46
2023-04-23T00:29:35.647Z,33.44
2023-04-23T00:30:35.661Z,33.49
2023-04-23T00:31:35.701Z,33.39
2023-04-23T00:32:35.733Z,33.45
2023-04-23T00:33:35.668Z,33.42
2023-04-23T00:34:35.729Z,33.41
2023-04-23T00:35:35.708Z,33.42
2023-04-23T00:36:35.769Z,33.44
2023-04-23T00:37:35.779Z,33.40
2023-04-23T00:38:35.783Z,33.39
2023-04-23T00:39:35.858Z,33.46
2023-04-23T00:40:35.858Z,33.47
2023-04-23T00:41:35.922Z,33.46
2023-04-23T00:42:35.982Z,33.49
2023-04-23T00:43:35.946Z,33.51
2023-04-23T00:44:36.006Z,33.44
2023-04-23T00:45:36.069Z,33.44
2023-04-23T00:46:36.055Z,33.49
2023-04-23T00:47:36.142Z,33.49
2023-04-23T00:48:36.133Z,33.44
2023-04-23T00:49:36.171Z,33.44
2023-04-23T00:50:36.169Z,33.46
2023-04-23T00:51:36.205Z,33.44
2023-04-23T00:52:36.245Z,33.38
2023-04-23T00:53:36.235Z,33.40
2023-04-23T00:54:36.247Z,33.42
2023-04-23T00:55:36.324Z,33.46
2023-04-23T00:56:36.346Z,33.43
2023-04-23T00:57:36.422Z,33.43
2023-04-23T00:58:36.460Z,33.44
2023-04-23T00:59:36.461Z,33.44
2023-04-23T01:00:36.494Z,33.49
2023-04-23T01:01:36.560Z,33.46
2023-04-23T01:02:36.820Z,33.46
2023-04-23T01:03:36.751Z,33.44
2023-04-23T01:04:36.642Z,33.46
2023-04-23T01:05:36.687Z,33.46
2023-04-23T01:06:36.709Z,33.46
2023-04-23T01:07:36.778Z,33.47
2023-04-23T01:08:36.725Z,33.44
2023-04-23T01:09:36.748Z,33.47
2023-04-23T01:10:36.796Z,33.49
2023-04-23T01:11:36.854Z,33.47
2023-04-23T01:12:36.900Z,33.43
2023-04-23T01:13:36.931Z,33.47
2023-04-23T01:14:36.941Z,33.46
2023-04-23T01:15:36.969Z,33.42
2023-04-23T01:16:37.085Z,33.46
2023-04-23T01:17:37.161Z,33.47
2023-04-23T01:18:37.108Z,33.41
2023-04-23T01:19:37.148Z,33.49
2023-04-23T01:20:37.185Z,33.47
2023-04-23T01:21:37.245Z,33.47
2023-04-23T01:22:37.299Z,33.47
2023-04-23T01:23:37.305Z,33.44
2023-04-23T01:24:37.318Z,33.46
2023-04-23T01:25:37.361Z,33.43
2023-04-23T01:26:37.387Z,33.46
2023-04-23T01:27:37.431Z,33.43
2023-04-23T01:28:37.457Z,33.43
2023-04-23T01:29:37.529Z,33.44
2023-04-23T01:30:37.580Z,33.43
2023-04-23T01:31:37.604Z,33.49
2023-04-23T01:32:38.056Z,33.46
2023-04-23T01:33:37.628Z,33.44
2023-04-23T01:34:37.681Z,33.43
2023-04-23T01:35:37.685Z,33.44
2023-04-23T01:36:37.747Z,33.46
2023-04-23T01:37:37.769Z,33.46
2023-04-23T01:38:37.788Z,33.47
2023-04-23T01:39:37.912Z,33.43
2023-04-23T01:40:37.891Z,33.43
2023-04-23T01:41:37.934Z,33.44
2023-04-23T01:42:37.964Z,33.43
2023-04-23T01:43:38.006Z,33.47
2023-04-23T01:44:38.144Z,33.44
2023-04-23T01:45:38.065Z,33.46
2023-04-23T01:46:38.188Z,33.46
2023-04-23T01:47:38.158Z,33.49
2023-04-23T01:48:38.219Z,33.43
2023-04-23T01:49:38.171Z,33.41
2023-04-23T01:50:38.211Z,33.48
2023-04-23T01:51:38.262Z,33.51
2023-04-23T01:52:38.294Z,33.45
2023-04-23T01:53:38.395Z,33.46
2023-04-23T01:54:38.582Z,33.49
2023-04-23T01:55:38.437Z,33.44
2023-04-23T01:56:38.453Z,33.48
2023-04-23T01:57:38.481Z,33.44
2023-04-23T01:58:38.506Z,33.46
2023-04-23T01:59:38.572Z,33.48
2023-04-23T02:00:38.575Z,33.49
2023-04-23T02:01:38.612Z,33.46
2023-04-23T02:02:38.790Z,33.43
2023-04-23T02:03:38.715Z,33.47
2023-04-23T02:04:38.822Z,33.41
2023-04-23T02:05:38.692Z,33.47
2023-04-23T02:06:38.708Z,33.44
2023-04-23T02:07:38.782Z,33.44
2023-04-23T02:08:38.792Z,33.48
2023-04-23T02:09:38.836Z,33.45
2023-04-23T02:10:38.854Z,33.47
2023-04-23T02:11:38.883Z,33.44
2023-04-23T02:12:38.972Z,33.45
2023-04-23T02:13:38.942Z,33.45
2023-04-23T02:14:39.200Z,33.41
2023-04-23T02:15:39.016Z,33.48
2023-04-23T02:16:39.044Z,33.41
2023-04-23T02:17:39.129Z,33.47
2023-04-23T02:18:39.081Z,33.44
2023-04-23T02:19:39.108Z,33.44
2023-04-23T02:20:39.179Z,33.44
2023-04-23T02:21:39.179Z,33.47
2023-04-23T02:22:39.295Z,33.48
2023-04-23T02:23:39.227Z,33.44
2023-04-23T02:24:39.545Z,33.41
2023-04-23T02:25:39.327Z,33.47
2023-04-23T02:26:39.334Z,33.44
2023-04-23T02:27:39.436Z,33.47
2023-04-23T02:28:39.434Z,33.45
2023-04-23T02:29:39.443Z,33.45
2023-04-23T02:30:39.448Z,33.45
2023-04-23T02:31:39.582Z,33.42
2023-04-23T02:32:39.514Z,33.48
2023-04-23T02:33:39.517Z,33.52
2023-04-23T02:34:39.764Z,33.47
2023-04-23T02:35:39.682Z,33.42
2023-04-23T02:36:39.624Z,33.41
2023-04-23T02:37:40.085Z,33.43
2023-04-23T02:38:39.719Z,33.44
2023-04-23T02:39:39.714Z,33.49
2023-04-23T02:40:39.778Z,33.45
2023-04-23T02:41:39.763Z,33.40
2023-04-23T02:42:41.263Z,33.47
2023-04-23T02:43:39.808Z,33.45
2023-04-23T02:44:40.007Z,33.45
2023-04-23T02:45:39.798Z,33.44
2023-04-23T02:46:39.765Z,33.44
2023-04-23T02:47:39.846Z,33.48
2023-04-23T02:48:39.783Z,33.43
2023-04-23T02:49:39.750Z,33.42
2023-04-23T02:50:39.741Z,33.44
2023-04-23T02:51:39.744Z,33.41
2023-04-23T02:52:39.922Z,33.43
2023-04-23T02:53:39.717Z,33.43
2023-04-23T02:54:39.900Z,33.45
2023-04-23T02:55:39.717Z,33.41
2023-04-23T02:56:39.717Z,33.39
2023-04-23T02:57:39.768Z,33.43
2023-04-23T02:58:39.724Z,33.44
2023-04-23T02:59:39.691Z,33.43
2023-04-23T03:00:39.756Z,33.41
2023-04-23T03:01:39.685Z,33.42
2023-04-23T03:02:39.854Z,33.48
2023-04-23T03:03:39.871Z,33.45
2023-04-23T03:04:40.032Z,33.44
2023-04-23T03:05:39.638Z,33.45
2023-04-23T03:06:39.625Z,33.45
2023-04-23T03:07:39.634Z,33.44
2023-04-23T03:08:39.629Z,33.41
2023-04-23T03:09:39.593Z,33.42
2023-04-23T03:10:39.607Z,33.41
2023-04-23T03:11:39.603Z,33.44
2023-04-23T03:12:39.623Z,33.45
2023-04-23T03:13:39.584Z,33.44
2023-04-23T03:14:39.714Z,33.48
2023-04-23T03:15:39.611Z,33.42
2023-04-23T03:16:39.614Z,33.42
2023-04-23T03:17:39.616Z,33.44
2023-04-23T03:18:39.578Z,33.42
2023-04-23T03:19:39.545Z,33.42
2023-04-23T03:20:39.515Z,33.42
2023-04-23T03:21:39.519Z,33.45
2023-04-23T03:22:39.547Z,33.45
2023-04-23T03:23:39.509Z,33.45
2023-04-23T03:24:39.694Z,33.44
2023-04-23T03:25:39.496Z,33.41
2023-04-23T03:26:39.521Z,33.42
2023-04-23T03:27:40.296Z,33.38
2023-04-23T03:28:39.522Z,33.40
2023-04-23T03:29:39.532Z,33.42
2023-04-23T03:30:39.570Z,33.42
2023-04-23T03:31:39.621Z,33.44
2023-04-23T03:32:39.726Z,33.45
2023-04-23T03:33:39.693Z,33.39
2023-04-23T03:34:39.899Z,33.40
2023-04-23T03:35:39.732Z,33.42
2023-04-23T03:36:39.811Z,33.37
2023-04-23T03:37:39.788Z,33.44
2023-04-23T03:38:39.840Z,33.44
2023-04-23T03:39:39.846Z,33.41
2023-04-23T03:40:39.881Z,33.35
2023-04-23T03:41:39.912Z,33.42
2023-04-23T03:42:39.924Z,33.46
2023-04-23T03:43:40.004Z,33.45
2023-04-23T03:44:40.227Z,33.40
2023-04-23T03:45:40.031Z,33.45
2023-04-23T03:46:40.049Z,33.48
2023-04-23T03:47:40.076Z,33.40
2023-04-23T03:48:40.091Z,33.46
2023-04-23T03:49:40.158Z,33.44
2023-04-23T03:50:40.130Z,33.46
2023-04-23T03:51:40.127Z,33.45
2023-04-23T03:52:40.120Z,33.42
2023-04-23T03:53:40.182Z,33.41
2023-04-23T03:54:40.532Z,33.46
2023-04-23T03:55:40.254Z,33.46
2023-04-23T03:56:40.195Z,33.40
2023-04-23T03:57:40.250Z,33.40
2023-04-23T03:58:40.610Z,33.46
2023-04-23T03:59:40.471Z,33.44
2023-04-23T04:00:40.365Z,33.48
2023-04-23T04:01:40.422Z,33.44
2023-04-23T04:02:40.723Z,33.40
2023-04-23T04:03:41.014Z,33.45
2023-04-23T04:04:41.047Z,33.46
2023-04-23T04:05:40.662Z,33.45
2023-04-23T04:06:40.686Z,33.38
2023-04-23T04:07:40.713Z,33.45
2023-04-23T04:08:40.764Z,33.42
2023-04-23T04:09:40.789Z,33.39
2023-04-23T04:10:40.928Z,33.39
2023-04-23T04:11:40.943Z,33.42
2023-04-23T04:12:40.953Z,33.40
2023-04-23T04:13:40.993Z,33.39
2023-04-23T04:14:41.374Z,33.48
2023-04-23T04:15:41.113Z,33.46
2023-04-23T04:16:41.130Z,33.45
2023-04-23T04:17:41.225Z,33.39
2023-04-23T04:18:41.199Z,33.46
2023-04-23T04:19:41.263Z,33.45
2023-04-23T04:20:41.293Z,33.45
2023-04-23T04:21:41.340Z,33.46
2023-04-23T04:22:41.395Z,33.40
2023-04-23T04:23:41.456Z,33.40
2023-04-23T04:24:41.834Z,33.46
2023-04-23T04:25:41.507Z,33.46
2023-04-23T04:26:41.559Z,33.43
2023-04-23T04:27:41.630Z,33.45
2023-04-23T04:28:41.647Z,33.42
2023-04-23T04:29:41.700Z,33.40
2023-04-23T04:30:41.739Z,33.47
2023-04-23T04:31:41.838Z,33.45
2023-04-23T04:32:41.865Z,33.43
2023-04-23T04:33:41.839Z,33.42
2023-04-23T04:34:42.105Z,33.48
2023-04-23T04:35:41.843Z,33.49
2023-04-23T04:36:41.886Z,33.45
2023-04-23T04:37:41.907Z,33.45
2023-04-23T04:38:41.919Z,33.46
2023-04-23T04:39:41.963Z,33.42
2023-04-23T04:40:41.979Z,33.46
2023-04-23T04:41:42.057Z,33.44
2023-04-23T04:42:42.069Z,33.45
2023-04-23T04:43:42.103Z,33.43
2023-04-23T04:44:42.512Z,33.47
2023-04-23T04:45:42.158Z,33.45
2023-04-23T04:46:42.222Z,33.42
2023-04-23T04:47:42.284Z,33.43
2023-04-23T04:48:42.338Z,33.43
2023-04-23T04:49:42.351Z,33.43
2023-04-23T04:50:42.380Z,33.44
2023-04-23T04:51:42.429Z,33.43
2023-04-23T04:52:42.456Z,33.48
2023-04-23T04:53:42.538Z,33.38
2023-04-23T04:54:42.813Z,33.45
2023-04-23T04:55:42.567Z,33.43
2023-04-23T04:56:42.636Z,33.43
2023-04-23T04:57:42.644Z,33.40
2023-04-23T04:58:42.690Z,33.43
2023-04-23T04:59:43.058Z,33.43
2023-04-23T05:00:42.782Z,33.39
2023-04-23T05:01:42.827Z,33.40
2023-04-23T05:02:42.917Z,33.43
2023-04-23T05:03:43.107Z,33.43
2023-04-23T05:04:43.285Z,33.46
2023-04-23T05:05:43.001Z,33.42
2023-04-23T05:06:43.025Z,33.43
2023-04-23T05:07:43.115Z,33.43
2023-04-23T05:08:43.155Z,33.43
2023-04-23T05:09:45.038Z,33.43
2023-04-23T05:10:43.198Z,33.42
2023-04-23T05:11:43.262Z,33.40
2023-04-23T05:12:43.281Z,33.40
2023-04-23T05:13:43.348Z,33.40
2023-04-23T05:14:43.754Z,33.37
2023-04-23T05:15:43.442Z,33.36
2023-04-23T05:16:43.488Z,33.42
2023-04-23T05:17:43.627Z,33.39
2023-04-23T05:18:43.599Z,33.38
2023-04-23T05:19:43.620Z,33.39
2023-04-23T05:20:43.652Z,33.38
2023-04-23T05:21:43.706Z,33.39
2023-04-23T05:22:43.738Z,33.41
2023-04-23T05:23:43.792Z,33.35
2023-04-23T05:24:43.973Z,33.29
2023-04-23T05:25:43.837Z,33.34
2023-04-23T05:26:43.847Z,33.30
2023-04-23T05:27:43.921Z,33.34
2023-04-23T05:28:43.939Z,33.34
2023-04-23T05:29:43.964Z,33.34
2023-04-23T05:30:43.985Z,33.37
2023-04-23T05:31:44.016Z,33.32
2023-04-23T05:32:44.067Z,33.34
2023-04-23T05:33:49.769Z,33.31
2023-04-23T05:34:45.102Z,33.37
2023-04-23T05:35:44.084Z,33.34
2023-04-23T05:36:44.083Z,33.35
2023-04-23T05:37:44.052Z,33.34
2023-04-23T05:38:44.090Z,33.34
2023-04-23T05:39:44.599Z,33.34
2023-04-23T05:40:44.041Z,33.34
2023-04-23T05:41:44.024Z,33.34
2023-04-23T05:42:44.041Z,33.37
2023-04-23T05:43:44.071Z,33.33
2023-04-23T05:44:44.023Z,33.37
2023-04-23T05:45:44.118Z,33.31
2023-04-23T05:46:44.105Z,33.34
2023-04-23T05:47:44.187Z,33.28
2023-04-23T05:48:44.218Z,33.31
2023-04-23T05:49:44.269Z,33.28
2023-04-23T05:50:44.290Z,33.34
2023-04-23T05:51:46.400Z,33.33
2023-04-23T05:52:44.410Z,33.29
2023-04-23T05:53:44.443Z,33.30
2023-04-23T05:54:44.539Z,33.28
2023-04-23T05:55:44.487Z,33.34
2023-04-23T05:56:44.516Z,33.31
2023-04-23T05:57:44.574Z,33.33
2023-04-23T05:58:44.588Z,33.30
2023-04-23T05:59:44.605Z,33.33
2023-04-23T06:00:44.611Z,33.31
2023-04-23T06:01:44.644Z,33.28
2023-04-23T06:02:44.842Z,33.28
2023-04-23T06:03:44.818Z,33.30
2023-04-23T06:04:44.978Z,33.30
2023-04-23T06:05:44.821Z,33.26
2023-04-23T06:06:44.780Z,33.34
2023-04-23T06:07:44.823Z,33.28
2023-04-23T06:08:44.872Z,33.26
2023-04-23T06:09:44.881Z,33.30
2023-04-23T06:10:44.961Z,33.31
2023-04-23T06:11:44.991Z,33.30
2023-04-23T06:12:45.051Z,33.24
2023-04-23T06:13:45.063Z,33.27
2023-04-23T06:14:45.089Z,33.28
2023-04-23T06:15:45.188Z,33.26
2023-04-23T06:16:45.170Z,33.26
2023-04-23T06:17:45.252Z,33.27
2023-04-23T06:18:45.283Z,33.25
2023-04-23T06:19:45.341Z,33.27
2023-04-23T06:20:45.360Z,33.23
2023-04-23T06:21:45.420Z,33.24
2023-04-23T06:22:45.444Z,33.24
2023-04-23T06:23:45.511Z,33.20
2023-04-23T06:24:45.520Z,33.22
2023-04-23T06:25:45.589Z,33.24
2023-04-23T06:26:45.615Z,33.26
2023-04-23T06:27:45.647Z,33.22
2023-04-23T06:28:45.705Z,33.17
2023-04-23T06:29:45.768Z,33.21
2023-04-23T06:30:45.792Z,33.20
2023-04-23T06:31:45.885Z,33.22
2023-04-23T06:32:45.915Z,33.22
2023-04-23T06:33:45.900Z,33.25
2023-04-23T06:34:59.638Z,33.16
2023-04-23T06:35:46.967Z,33.22
2023-04-23T06:36:45.953Z,33.19
2023-04-23T06:37:45.912Z,33.14
2023-04-23T06:38:45.940Z,33.19
2023-04-23T06:39:45.894Z,33.19
2023-04-23T06:40:45.875Z,33.18
2023-04-23T06:41:45.906Z,33.19
2023-04-23T06:42:45.922Z,33.15
2023-04-23T06:43:45.919Z,33.18
2023-04-23T06:44:45.893Z,33.16
2023-04-23T06:45:45.856Z,33.14
2023-04-23T06:46:45.924Z,33.14
2023-04-23T06:47:45.934Z,33.12
2023-04-23T06:48:45.958Z,33.15
2023-04-23T06:49:46.021Z,33.11
2023-04-23T06:50:45.998Z,33.14
2023-04-23T06:51:46.040Z,33.07
2023-04-23T06:52:46.076Z,33.13
2023-04-23T06:53:46.150Z,33.17
2023-04-23T06:54:46.174Z,33.17
2023-04-23T06:55:46.208Z,33.13
2023-04-23T06:56:46.222Z,33.14
2023-04-23T06:57:46.247Z,33.14
2023-04-23T06:58:46.634Z,33.08
2023-04-23T06:59:46.381Z,33.11
2023-04-23T07:00:46.404Z,33.15
2023-04-23T07:01:46.405Z,33.11
2023-04-23T07:02:46.565Z,33.11
2023-04-23T07:03:46.513Z,33.13
2023-04-23T07:04:46.977Z,33.11
2023-04-23T07:05:46.543Z,33.13
2023-04-23T07:06:46.579Z,33.14
2023-04-23T07:07:46.574Z,33.07
2023-04-23T07:08:46.596Z,33.13
2023-04-23T07:09:46.615Z,33.04
2023-04-23T07:10:46.653Z,33.06
2023-04-23T07:11:46.662Z,33.10
2023-04-23T07:12:46.684Z,33.03
2023-04-23T07:13:46.696Z,33.07
2023-04-23T07:14:46.726Z,33.06
2023-04-23T07:15:46.731Z,33.08
2023-04-23T07:16:46.779Z,33.05
2023-04-23T07:17:46.787Z,33.02
2023-04-23T07:18:46.802Z,33.01
2023-04-23T07:19:46.811Z,33.01
2023-04-23T07:20:46.845Z,32.94
2023-04-23T07:21:46.861Z,32.97
2023-04-23T07:22:46.880Z,32.89
2023-04-23T07:23:46.963Z,32.95
2023-04-23T07:24:46.926Z,32.94
2023-04-23T07:25:46.996Z,32.91
2023-04-23T07:26:46.962Z,32.89
2023-04-23T07:27:46.978Z,32.89
2023-04-23T07:28:47.031Z,32.91
2023-04-23T07:29:47.001Z,32.83
2023-04-23T07:30:47.046Z,32.80
2023-04-23T07:31:47.080Z,32.83
2023-04-23T07:32:47.103Z,32.84
2023-04-23T07:33:47.087Z,32.74
2023-04-23T07:34:47.113Z,32.72
2023-04-23T07:35:47.151Z,32.70
2023-04-23T07:36:47.204Z,32.67
2023-04-23T07:37:47.217Z,32.65
2023-04-23T07:38:47.285Z,32.64
2023-04-23T07:39:47.553Z,32.71
2023-04-23T07:40:47.320Z,32.63
2023-04-23T07:41:47.342Z,32.60
2023-04-23T07:42:47.310Z,32.60
2023-04-23T07:43:47.319Z,32.58
2023-04-23T07:44:47.312Z,32.53
2023-04-23T07:45:47.308Z,32.52
2023-04-23T07:46:47.298Z,32.51
2023-04-23T07:47:47.387Z,32.47
2023-04-23T07:48:47.322Z,32.44
2023-04-23T07:49:47.307Z,32.45
2023-04-23T07:50:47.314Z,32.47
2023-04-23T07:51:47.312Z,32.41
2023-04-23T07:52:47.344Z,32.43
2023-04-23T07:53:47.339Z,32.43
2023-04-23T07:54:47.315Z,32.46
2023-04-23T07:55:47.316Z,32.40
2023-04-23T07:56:47.330Z,32.43
2023-04-23T07:57:47.317Z,32.37
2023-04-23T07:58:47.324Z,32.36
2023-04-23T07:59:47.308Z,32.39
2023-04-23T08:00:47.321Z,32.36
2023-04-23T08:01:47.383Z,32.35
2023-04-23T08:02:47.439Z,32.35
2023-04-23T08:03:47.498Z,32.31
2023-04-23T08:04:47.642Z,32.32
2023-04-23T08:05:47.436Z,32.30
2023-04-23T08:06:47.302Z,32.27
2023-04-23T08:07:47.316Z,32.30
2023-04-23T08:08:47.329Z,32.29
2023-04-23T08:09:47.743Z,32.30
2023-04-23T08:10:47.308Z,32.27
2023-04-23T08:11:47.304Z,32.22
2023-04-23T08:12:47.309Z,32.22
2023-04-23T08:13:47.302Z,32.23
2023-04-23T08:14:47.346Z,32.21
2023-04-23T08:15:47.363Z,32.16
2023-04-23T08:16:47.299Z,32.19
2023-04-23T08:17:47.351Z,32.18
2023-04-23T08:19:03.702Z,32.12
2023-04-23T08:19:48.309Z,32.14
2023-04-23T08:20:47.321Z,32.12
2023-04-23T08:21:47.289Z,32.04
2023-04-23T08:22:47.293Z,32.10
2023-04-23T08:23:47.287Z,32.14
2023-04-23T08:24:47.284Z,32.07
2023-04-23T08:25:47.280Z,32.11
2023-04-23T08:26:47.323Z,32.07
2023-04-23T08:27:47.260Z,32.07
2023-04-23T08:28:47.649Z,32.10
2023-04-23T08:29:47.265Z,32.06
2023-04-23T08:30:47.248Z,32.07
2023-04-23T08:31:47.262Z,32.03
2023-04-23T08:32:47.299Z,32.03
2023-04-23T08:33:47.226Z,32.03
2023-04-23T08:34:47.244Z,32.06
2023-04-23T08:35:47.209Z,32.00
2023-04-23T08:36:47.221Z,31.99
2023-04-23T08:37:47.261Z,32.00
2023-04-23T08:38:47.646Z,32.01
2023-04-23T08:39:47.187Z,31.97
2023-04-23T08:40:47.250Z,31.95
2023-04-23T08:41:47.161Z,31.97
2023-04-23T08:42:47.168Z,32.02
2023-04-23T08:43:47.154Z,31.97
2023-04-23T08:44:47.153Z,31.99
2023-04-23T08:45:47.132Z,31.97
2023-04-23T08:46:47.281Z,31.91
2023-04-23T08:47:47.166Z,31.88
2023-04-23T08:48:47.122Z,31.88
2023-04-23T08:49:47.109Z,31.90
2023-04-23T08:50:47.103Z,31.91
2023-04-23T08:51:47.085Z,31.94
2023-04-23T08:52:47.074Z,31.93
2023-04-23T08:53:47.121Z,31.90
2023-04-23T08:54:47.064Z,31.94
2023-04-23T08:55:47.064Z,31.91
2023-04-23T08:56:47.066Z,31.89
2023-04-23T08:57:47.057Z,31.85
2023-04-23T08:58:47.169Z,31.85
2023-04-23T08:59:47.040Z,31.86
2023-04-23T09:00:47.096Z,31.86
2023-04-23T09:01:47.077Z,31.83
2023-04-23T09:02:47.148Z,31.83
2023-04-23T09:03:47.193Z,31.82
2023-04-23T09:04:48.440Z,31.79
2023-04-23T09:05:47.053Z,31.79
2023-04-23T09:06:47.013Z,31.81
2023-04-23T09:07:46.975Z,31.83
2023-04-23T09:08:47.027Z,31.80
2023-04-23T09:09:46.980Z,31.78
2023-04-23T09:10:46.946Z,31.76
2023-04-23T09:11:46.970Z,31.77
2023-04-23T09:12:47.013Z,31.72
2023-04-23T09:13:46.954Z,31.76
2023-04-23T09:14:46.945Z,31.74
2023-04-23T09:15:46.965Z,31.74
2023-04-23T09:16:46.953Z,31.74
2023-04-23T09:17:46.953Z,31.72
2023-04-23T09:18:46.942Z,31.74
2023-04-23T09:19:46.896Z,31.73
2023-04-23T09:20:46.925Z,31.65
2023-04-23T09:21:46.913Z,31.72
2023-04-23T09:22:47.610Z,31.69
2023-04-23T09:23:46.867Z,31.66
2023-04-23T09:24:46.854Z,31.68
2023-04-23T09:25:46.864Z,31.69
2023-04-23T09:26:46.885Z,31.70
2023-04-23T09:27:46.848Z,31.67
2023-04-23T09:28:48.418Z,31.67
2023-04-23T09:29:46.810Z,31.68
2023-04-23T09:30:46.825Z,31.67
2023-04-23T09:31:46.866Z,31.67
2023-04-23T09:32:46.929Z,31.68
2023-04-23T09:33:46.784Z,31.67
2023-04-23T09:34:46.777Z,31.70
2023-04-23T09:35:46.777Z,31.71
2023-04-23T09:36:46.782Z,31.67
2023-04-23T09:37:46.756Z,31.64
2023-04-23T09:38:46.762Z,31.65
2023-04-23T09:39:46.757Z,31.65
2023-04-23T09:40:46.788Z,31.61
2023-04-23T09:41:46.746Z,31.64
2023-04-23T09:42:46.717Z,31.70
2023-04-23T09:43:46.727Z,31.62
2023-04-23T09:44:46.736Z,31.65
2023-04-23T09:45:46.722Z,31.55
2023-04-23T09:46:46.689Z,31.60
2023-04-23T09:47:46.703Z,31.72
2023-04-23T09:48:46.687Z,31.66
2023-04-23T09:49:46.701Z,31.63
2023-04-23T09:50:46.664Z,31.61
2023-04-23T09:51:46.675Z,31.66
2023-04-23T09:52:46.706Z,31.63
2023-04-23T09:53:46.664Z,31.63
2023-04-23T09:54:46.763Z,31.59
2023-04-23T09:55:46.638Z,31.62
2023-04-23T09:56:46.671Z,31.56
2023-04-23T09:57:46.633Z,31.61
2023-04-23T09:58:46.642Z,31.59
2023-04-23T09:59:48.827Z,31.54
2023-04-23T10:00:47.608Z,31.54
2023-04-23T10:01:46.638Z,31.60
2023-04-23T10:02:46.807Z,31.50
2023-04-23T10:03:46.768Z,31.54
2023-04-23T10:04:46.727Z,31.55
2023-04-23T10:06:00.424Z,31.51
2023-04-23T10:06:57.900Z,31.57
2023-04-23T10:07:47.544Z,31.51
2023-04-23T10:08:46.563Z,31.51
2023-04-23T10:09:46.536Z,31.47
2023-04-23T10:10:59.967Z,31.49
2023-04-23T10:11:47.510Z,31.47
2023-04-23T10:13:46.572Z,31.51
2023-04-23T10:14:46.557Z,31.53
2023-04-23T10:15:46.557Z,31.50
2023-04-23T10:16:49.286Z,31.50
2023-04-23T10:17:46.498Z,31.57
2023-04-23T10:18:46.580Z,31.53
2023-04-23T10:19:46.808Z,31.53
2023-04-23T10:20:46.450Z,31.57
2023-04-23T10:21:54.725Z,31.57
2023-04-23T10:22:47.438Z,31.57
2023-04-23T10:23:46.470Z,31.56
2023-04-23T10:24:48.747Z,31.54
2023-04-23T10:25:46.403Z,31.53
2023-04-23T10:26:46.415Z,31.48
2023-04-23T10:27:53.893Z,31.52
2023-04-23T10:28:47.432Z,31.50
2023-04-23T10:29:46.427Z,31.50
2023-04-23T10:30:46.387Z,31.46
2023-04-23T10:31:46.435Z,31.45
2023-04-23T10:32:46.392Z,31.50
2023-04-23T10:33:58.430Z,31.45
2023-04-23T10:34:47.375Z,31.48
2023-04-23T10:35:48.173Z,31.47
2023-04-23T10:36:46.347Z,31.43
2023-04-23T10:37:46.421Z,31.48
2023-04-23T10:38:57.215Z,31.47
2023-04-23T10:39:47.533Z,31.45
2023-04-23T10:40:46.307Z,31.40
2023-04-23T10:41:46.335Z,31.47
2023-04-23T10:42:46.299Z,31.45
2023-04-23T10:43:46.315Z,31.45
2023-04-23T10:44:57.855Z,31.50
2023-04-23T10:45:47.263Z,31.49
2023-04-23T10:46:46.319Z,31.44
2023-04-23T10:47:46.348Z,31.45
2023-04-23T10:48:46.262Z,31.43
2023-04-23T10:49:46.273Z,31.50
2023-04-23T10:51:02.423Z,31.47
2023-04-23T10:52:17.801Z,31.45
2023-04-23T10:52:47.229Z,31.47
2023-04-23T10:53:46.231Z,31.47
2023-04-23T10:54:46.215Z,31.45
2023-04-23T10:55:46.228Z,31.44
2023-04-23T10:56:46.206Z,31.47
2023-04-23T10:57:46.217Z,31.50
2023-04-23T10:58:46.232Z,31.49
2023-04-23T10:59:46.191Z,31.47
2023-04-23T11:00:46.371Z,31.50
2023-04-23T11:01:46.188Z,31.43
2023-04-23T11:02:46.373Z,31.43
2023-04-23T11:03:46.375Z,31.46
2023-04-23T11:04:46.237Z,31.42
2023-04-23T11:05:46.131Z,31.46
2023-04-23T11:06:46.133Z,31.42
2023-04-23T11:07:46.120Z,31.49
2023-04-23T11:08:46.172Z,31.47
2023-04-23T11:09:46.136Z,31.49
2023-04-23T11:10:46.104Z,31.54
2023-04-23T11:11:46.116Z,31.52
2023-04-23T11:12:46.101Z,31.52
2023-04-23T11:13:46.106Z,31.52
2023-04-23T11:14:46.084Z,31.49
2023-04-23T11:15:46.063Z,31.49
2023-04-23T11:16:46.118Z,31.52
2023-04-23T11:17:46.227Z,31.54
2023-04-23T11:18:46.253Z,31.53
2023-04-23T11:19:46.279Z,31.56
2023-04-23T11:20:46.360Z,31.49
2023-04-23T11:21:46.361Z,31.50
2023-04-23T11:22:46.428Z,31.48
2023-04-23T11:23:46.504Z,31.53
2023-04-23T11:24:48.106Z,31.52
2023-04-23T11:25:46.554Z,31.52
2023-04-23T11:26:46.528Z,31.56
2023-04-23T11:27:46.514Z,31.55
2023-04-23T11:28:46.558Z,31.55
2023-04-23T11:29:46.537Z,31.52
2023-04-23T11:30:46.504Z,31.52
2023-04-23T11:32:00.793Z,31.48
2023-04-23T11:32:47.617Z,31.48
2023-04-23T11:33:46.481Z,31.56
2023-04-23T11:34:46.773Z,31.50
2023-04-23T11:35:46.545Z,31.53
2023-04-23T11:36:46.492Z,31.57
2023-04-23T11:37:46.460Z,31.56
2023-04-23T11:38:46.454Z,31.56
2023-04-23T11:39:46.460Z,31.52
2023-04-23T11:40:46.457Z,31.56
2023-04-23T11:41:46.423Z,31.53
2023-04-23T11:42:46.420Z,31.55
2023-04-23T11:43:46.413Z,31.56
2023-04-23T11:44:46.442Z,31.57
2023-04-23T11:45:46.497Z,31.59
2023-04-23T11:46:46.538Z,31.59
2023-04-23T11:47:46.570Z,31.59
2023-04-23T11:48:46.569Z,31.57
2023-04-23T11:49:46.933Z,31.55
2023-04-23T11:50:46.641Z,31.59
2023-04-23T11:51:46.696Z,31.59
2023-04-23T11:52:46.751Z,31.56
2023-04-23T11:53:46.787Z,31.58
2023-04-23T11:54:46.828Z,31.56
2023-04-23T11:55:46.885Z,31.56
2023-04-23T11:56:46.945Z,31.56
2023-04-23T11:57:47.005Z,31.58
2023-04-23T11:58:47.030Z,31.62
2023-04-23T11:59:47.071Z,31.58
2023-04-23T12:00:47.134Z,31.65
2023-04-23T12:01:47.168Z,31.55
2023-04-23T12:02:47.325Z,31.58
2023-04-23T12:03:47.446Z,31.58
2023-04-23T12:04:47.320Z,31.57
2023-04-23T12:05:47.379Z,31.62
2023-04-23T12:06:47.390Z,31.67
2023-04-23T12:07:47.428Z,31.65
2023-04-23T12:08:47.475Z,31.66
2023-04-23T12:09:47.521Z,31.63
2023-04-23T12:10:47.581Z,31.62
2023-04-23T12:11:47.751Z,31.65
2023-04-23T12:12:47.671Z,31.62
2023-04-23T12:13:47.688Z,31.61
2023-04-23T12:14:47.755Z,31.55
2023-04-23T12:15:47.792Z,31.61
2023-04-23T12:16:47.810Z,31.58
2023-04-23T12:17:47.883Z,31.56
2023-04-23T12:18:47.884Z,31.58
2023-04-23T12:19:47.969Z,31.55
2023-04-23T12:20:47.979Z,31.58
2023-04-23T12:21:48.043Z,31.59
2023-04-23T12:22:48.060Z,31.60
2023-04-23T12:23:48.128Z,31.59
2023-04-23T12:24:48.162Z,31.59
2023-04-23T12:25:48.188Z,31.58
2023-04-23T12:26:48.252Z,31.60
2023-04-23T12:27:48.264Z,31.60
2023-04-23T12:28:48.329Z,31.58
2023-04-23T12:29:48.364Z,31.59
2023-04-23T12:30:48.353Z,31.62
2023-04-23T12:31:48.434Z,31.61
2023-04-23T12:32:48.510Z,31.66
2023-04-23T12:33:48.455Z,31.67
2023-04-23T12:34:48.484Z,31.66
2023-04-23T12:35:48.514Z,31.69
2023-04-23T12:36:48.602Z,31.69
2023-04-23T12:37:48.697Z,31.65
2023-04-23T12:38:48.633Z,31.65
2023-04-23T12:39:48.681Z,31.65
2023-04-23T12:40:48.684Z,31.64
2023-04-23T12:41:48.735Z,31.66
2023-04-23T12:42:48.755Z,31.63
2023-04-23T12:43:48.813Z,31.65
2023-04-23T12:44:48.842Z,31.69
2023-04-23T12:45:48.848Z,31.63
2023-04-23T12:46:48.962Z,31.62
2023-04-23T12:47:49.024Z,31.65
2023-04-23T12:48:48.954Z,31.65
2023-04-23T12:49:49.296Z,31.67
2023-04-23T12:50:49.070Z,31.71
2023-04-23T12:51:49.113Z,31.71
2023-04-23T12:52:49.144Z,31.67
2023-04-23T12:53:49.154Z,31.74